sensor_id;sensor_type;location;lat;lon;timestamp;P1;durP1;ratioP1;P2;durP2;ratioP2
55491;SDS011;41354;52.990;6.878;2022-08-04T00:07:08;10.85;;;7.63;;
55491;SDS011;41354;52.990;6.878;2022-08-04T00:12:27;13.05;;;7.50;;
55491;SDS011;41354;52.990;6.878;2022-08-04T00:14:55;9.95;;;6.70;;
55491;SDS011;41354;52.990;6.878;2022-08-04T00:17:25;9.75;;;6.25;;
55491;SDS011;41354;52.990;6.878;2022-08-04T00:19:57;9.45;;;6.85;;
55491;SDS011;41354;52.990;6.878;2022-08-04T00:22:28;13.30;;;7.22;;
55491;SDS011;41354;52.990;6.878;2022-08-04T00:24:55;11.60;;;7.25;;
55491;SDS011;41354;52.990;6.878;2022-08-04T00:27:22;12.02;;;7.70;;
55491;SDS011;41354;52.990;6.878;2022-08-04T00:29:48;15.93;;;9.40;;
55491;SDS011;41354;52.990;6.878;2022-08-04T00:32:13;16.05;;;8.32;;
55491;SDS011;41354;52.990;6.878;2022-08-04T00:34:42;13.23;;;7.45;;
55491;SDS011;41354;52.990;6.878;2022-08-04T00:37:08;10.93;;;6.00;;
55491;SDS011;41354;52.990;6.878;2022-08-04T00:39:34;13.40;;;8.32;;
55491;SDS011;41354;52.990;6.878;2022-08-04T00:42:13;13.43;;;7.47;;
55491;SDS011;41354;52.990;6.878;2022-08-04T01:06:26;12.75;;;8.77;;
55491;SDS011;41354;52.990;6.878;2022-08-04T01:11:36;10.93;;;7.78;;
55491;SDS011;41354;52.990;6.878;2022-08-04T01:17:35;12.10;;;7.88;;
55491;SDS011;41354;52.990;6.878;2022-08-04T01:20:08;10.02;;;6.70;;
55491;SDS011;41354;52.990;6.878;2022-08-04T01:27:56;11.90;;;6.50;;
55491;SDS011;41354;52.990;6.878;2022-08-04T01:30:36;11.88;;;6.85;;
55491;SDS011;41354;52.990;6.878;2022-08-04T01:33:12;13.75;;;7.13;;
55491;SDS011;41354;52.990;6.878;2022-08-04T01:35:49;12.27;;;7.00;;
55491;SDS011;41354;52.990;6.878;2022-08-04T01:38:21;9.95;;;6.70;;
55491;SDS011;41354;52.990;6.878;2022-08-04T01:40:53;13.65;;;6.40;;
55491;SDS011;41354;52.990;6.878;2022-08-04T01:43:21;18.73;;;9.05;;
55491;SDS011;41354;52.990;6.878;2022-08-04T01:45:56;10.85;;;6.22;;
55491;SDS011;41354;52.990;6.878;2022-08-04T01:48:23;12.65;;;7.55;;
55491;SDS011;41354;52.990;6.878;2022-08-04T01:50:50;17.33;;;6.38;;
55491;SDS011;41354;52.990;6.878;2022-08-04T01:53:18;12.88;;;6.63;;
55491;SDS011;41354;52.990;6.878;2022-08-04T01:55:45;14.65;;;7.60;;
55491;SDS011;41354;52.990;6.878;2022-08-04T01:58:14;12.68;;;7.90;;
55491;SDS011;41354;52.990;6.878;2022-08-04T02:00:44;14.15;;;7.03;;
55491;SDS011;41354;52.990;6.878;2022-08-04T02:03:32;14.38;;;8.18;;
55491;SDS011;41354;52.990;6.878;2022-08-04T02:11:39;12.13;;;6.35;;
55491;SDS011;41354;52.990;6.878;2022-08-04T02:14:13;11.43;;;7.05;;
55491;SDS011;41354;52.990;6.878;2022-08-04T02:17:07;12.38;;;6.72;;
55491;SDS011;41354;52.990;6.878;2022-08-04T02:22:28;13.20;;;8.07;;
55491;SDS011;41354;52.990;6.878;2022-08-04T02:24:59;13.68;;;7.45;;
55491;SDS011;41354;52.990;6.878;2022-08-04T02:27:34;14.18;;;7.55;;
55491;SDS011;41354;52.990;6.878;2022-08-04T02:30:15;13.20;;;8.02;;
55491;SDS011;41354;52.990;6.878;2022-08-04T02:32:42;11.18;;;6.88;;
55491;SDS011;41354;52.990;6.878;2022-08-04T02:35:13;15.55;;;7.32;;
55491;SDS011;41354;52.990;6.878;2022-08-04T02:37:44;17.58;;;7.38;;
55491;SDS011;41354;52.990;6.878;2022-08-04T02:40:12;12.95;;;7.05;;
55491;SDS011;41354;52.990;6.878;2022-08-04T02:42:44;13.35;;;8.20;;
55491;SDS011;41354;52.990;6.878;2022-08-04T02:45:10;10.52;;;6.25;;
55491;SDS011;41354;52.990;6.878;2022-08-04T02:47:37;13.57;;;7.35;;
55491;SDS011;41354;52.990;6.878;2022-08-04T02:50:04;9.98;;;6.38;;
55491;SDS011;41354;52.990;6.878;2022-08-04T02:52:32;13.57;;;6.90;;
55491;SDS011;41354;52.990;6.878;2022-08-04T02:54:59;11.93;;;7.38;;
55491;SDS011;41354;52.990;6.878;2022-08-04T02:57:26;12.07;;;7.25;;
55491;SDS011;41354;52.990;6.878;2022-08-04T03:02:48;12.48;;;7.07;;
55491;SDS011;41354;52.990;6.878;2022-08-04T03:05:16;10.90;;;7.15;;
55491;SDS011;41354;52.990;6.878;2022-08-04T03:07:55;11.40;;;7.07;;
55491;SDS011;41354;52.990;6.878;2022-08-04T03:22:12;11.52;;;6.72;;
55491;SDS011;41354;52.990;6.878;2022-08-04T03:30:48;11.48;;;6.68;;
55491;SDS011;41354;52.990;6.878;2022-08-04T03:33:48;11.05;;;6.95;;
55491;SDS011;41354;52.990;6.878;2022-08-04T03:39:27;10.70;;;6.25;;
55491;SDS011;41354;52.990;6.878;2022-08-04T03:42:33;10.50;;;6.60;;
55491;SDS011;41354;52.990;6.878;2022-08-04T03:45:17;11.80;;;7.25;;
55491;SDS011;41354;52.990;6.878;2022-08-04T03:54:25;10.05;;;6.95;;
55491;SDS011;41354;52.990;6.878;2022-08-04T04:05:17;11.45;;;9.07;;
55491;SDS011;41354;52.990;6.878;2022-08-04T04:10:58;10.85;;;6.85;;
55491;SDS011;41354;52.990;6.878;2022-08-04T04:22:59;17.52;;;7.78;;
55491;SDS011;41354;52.990;6.878;2022-08-04T04:28:25;10.68;;;8.25;;
55491;SDS011;41354;52.990;6.878;2022-08-04T04:36:33;13.75;;;7.07;;
55491;SDS011;41354;52.990;6.878;2022-08-04T04:39:07;12.48;;;7.20;;
55491;SDS011;41354;52.990;6.878;2022-08-04T04:41:53;14.82;;;8.07;;
55491;SDS011;41354;52.990;6.878;2022-08-04T04:53:21;17.60;;;7.45;;
55491;SDS011;41354;52.990;6.878;2022-08-04T04:56:07;14.25;;;7.18;;
55491;SDS011;41354;52.990;6.878;2022-08-04T04:58:38;18.98;;;7.40;;
55491;SDS011;41354;52.990;6.878;2022-08-04T05:04:15;14.38;;;7.75;;
55491;SDS011;41354;52.990;6.878;2022-08-04T05:15:25;12.50;;;7.32;;
55491;SDS011;41354;52.990;6.878;2022-08-04T05:17:55;17.38;;;7.97;;
55491;SDS011;41354;52.990;6.878;2022-08-04T05:20:25;20.35;;;7.63;;
55491;SDS011;41354;52.990;6.878;2022-08-04T05:23:01;11.60;;;6.72;;
55491;SDS011;41354;52.990;6.878;2022-08-04T05:25:37;19.20;;;8.48;;
55491;SDS011;41354;52.990;6.878;2022-08-04T05:28:40;17.67;;;8.85;;
55491;SDS011;41354;52.990;6.878;2022-08-04T05:33:45;11.52;;;6.85;;
55491;SDS011;41354;52.990;6.878;2022-08-04T05:36:15;14.00;;;7.50;;
55491;SDS011;41354;52.990;6.878;2022-08-04T05:38:42;13.38;;;7.05;;
55491;SDS011;41354;52.990;6.878;2022-08-04T05:41:11;12.85;;;7.55;;
55491;SDS011;41354;52.990;6.878;2022-08-04T05:43:38;11.60;;;6.30;;
55491;SDS011;41354;52.990;6.878;2022-08-04T05:46:07;12.90;;;6.82;;
55491;SDS011;41354;52.990;6.878;2022-08-04T05:48:35;14.93;;;7.60;;
55491;SDS011;41354;52.990;6.878;2022-08-04T05:51:02;12.60;;;7.03;;
55491;SDS011;41354;52.990;6.878;2022-08-04T05:53:29;19.55;;;6.43;;
55491;SDS011;41354;52.990;6.878;2022-08-04T05:55:56;15.43;;;6.28;;
55491;SDS011;41354;52.990;6.878;2022-08-04T05:58:26;11.90;;;7.25;;
55491;SDS011;41354;52.990;6.878;2022-08-04T06:00:54;12.98;;;6.88;;
55491;SDS011;41354;52.990;6.878;2022-08-04T06:03:20;15.25;;;5.10;;
55491;SDS011;41354;52.990;6.878;2022-08-04T06:05:47;13.93;;;6.47;;
55491;SDS011;41354;52.990;6.878;2022-08-04T06:08:14;12.55;;;6.70;;
55491;SDS011;41354;52.990;6.878;2022-08-04T06:10:40;8.32;;;4.72;;
55491;SDS011;41354;52.990;6.878;2022-08-04T06:13:12;11.00;;;6.70;;
55491;SDS011;41354;52.990;6.878;2022-08-04T06:15:40;12.40;;;6.63;;
55491;SDS011;41354;52.990;6.878;2022-08-04T06:18:08;11.18;;;6.93;;
55491;SDS011;41354;52.990;6.878;2022-08-04T06:20:35;11.73;;;6.15;;
55491;SDS011;41354;52.990;6.878;2022-08-04T06:23:06;12.52;;;7.65;;
55491;SDS011;41354;52.990;6.878;2022-08-04T06:25:38;12.55;;;6.75;;
55491;SDS011;41354;52.990;6.878;2022-08-04T06:28:33;13.13;;;6.18;;
55491;SDS011;41354;52.990;6.878;2022-08-04T06:30:59;11.27;;;6.65;;
55491;SDS011;41354;52.990;6.878;2022-08-04T06:33:29;8.98;;;4.47;;
55491;SDS011;41354;52.990;6.878;2022-08-04T06:36:01;9.93;;;5.40;;
55491;SDS011;41354;52.990;6.878;2022-08-04T06:38:30;6.97;;;4.80;;
55491;SDS011;41354;52.990;6.878;2022-08-04T06:40:57;9.65;;;5.38;;
55491;SDS011;41354;52.990;6.878;2022-08-04T06:43:27;10.80;;;4.85;;
55491;SDS011;41354;52.990;6.878;2022-08-04T06:45:55;9.32;;;4.40;;
55491;SDS011;41354;52.990;6.878;2022-08-04T06:48:23;11.50;;;4.30;;
55491;SDS011;41354;52.990;6.878;2022-08-04T06:50:50;8.32;;;4.22;;
55491;SDS011;41354;52.990;6.878;2022-08-04T06:53:17;8.20;;;4.07;;
55491;SDS011;41354;52.990;6.878;2022-08-04T06:55:44;7.68;;;4.10;;
55491;SDS011;41354;52.990;6.878;2022-08-04T06:58:11;8.38;;;4.10;;
55491;SDS011;41354;52.990;6.878;2022-08-04T07:00:38;9.07;;;3.50;;
55491;SDS011;41354;52.990;6.878;2022-08-04T07:03:05;8.38;;;3.72;;
55491;SDS011;41354;52.990;6.878;2022-08-04T07:05:31;7.93;;;3.15;;
55491;SDS011;41354;52.990;6.878;2022-08-04T07:07:58;8.70;;;3.40;;
55491;SDS011;41354;52.990;6.878;2022-08-04T07:10:27;5.80;;;2.95;;
55491;SDS011;41354;52.990;6.878;2022-08-04T07:12:58;12.23;;;3.13;;
55491;SDS011;41354;52.990;6.878;2022-08-04T07:15:24;10.02;;;4.03;;
55491;SDS011;41354;52.990;6.878;2022-08-04T07:17:51;9.38;;;3.63;;
55491;SDS011;41354;52.990;6.878;2022-08-04T07:20:17;10.93;;;3.38;;
55491;SDS011;41354;52.990;6.878;2022-08-04T07:22:43;6.30;;;3.00;;
55491;SDS011;41354;52.990;6.878;2022-08-04T07:25:13;8.80;;;3.60;;
55491;SDS011;41354;52.990;6.878;2022-08-04T07:27:39;7.20;;;3.05;;
55491;SDS011;41354;52.990;6.878;2022-08-04T07:30:07;6.35;;;2.70;;
55491;SDS011;41354;52.990;6.878;2022-08-04T07:32:33;6.43;;;3.35;;
55491;SDS011;41354;52.990;6.878;2022-08-04T07:34:59;8.38;;;2.92;;
55491;SDS011;41354;52.990;6.878;2022-08-04T07:37:26;7.63;;;3.17;;
55491;SDS011;41354;52.990;6.878;2022-08-04T07:39:51;8.60;;;3.53;;
55491;SDS011;41354;52.990;6.878;2022-08-04T07:42:18;4.45;;;2.40;;
55491;SDS011;41354;52.990;6.878;2022-08-04T07:44:44;6.75;;;3.50;;
55491;SDS011;41354;52.990;6.878;2022-08-04T07:47:10;5.50;;;2.50;;
55491;SDS011;41354;52.990;6.878;2022-08-04T07:49:36;7.85;;;2.75;;
55491;SDS011;41354;52.990;6.878;2022-08-04T07:52:02;9.27;;;2.70;;
55491;SDS011;41354;52.990;6.878;2022-08-04T07:54:28;4.20;;;1.65;;
55491;SDS011;41354;52.990;6.878;2022-08-04T07:56:54;9.15;;;3.05;;
55491;SDS011;41354;52.990;6.878;2022-08-04T07:59:20;5.13;;;1.80;;
55491;SDS011;41354;52.990;6.878;2022-08-04T08:01:46;6.35;;;2.22;;
55491;SDS011;41354;52.990;6.878;2022-08-04T08:04:12;6.80;;;1.98;;
55491;SDS011;41354;52.990;6.878;2022-08-04T08:06:39;6.38;;;1.95;;
55491;SDS011;41354;52.990;6.878;2022-08-04T08:09:11;9.65;;;2.28;;
55491;SDS011;41354;52.990;6.878;2022-08-04T08:11:39;5.32;;;1.50;;
55491;SDS011;41354;52.990;6.878;2022-08-04T08:14:08;6.50;;;2.40;;
55491;SDS011;41354;52.990;6.878;2022-08-04T08:16:34;6.57;;;2.60;;
55491;SDS011;41354;52.990;6.878;2022-08-04T08:19:01;10.82;;;4.53;;
55491;SDS011;41354;52.990;6.878;2022-08-04T08:21:27;6.63;;;3.47;;
55491;SDS011;41354;52.990;6.878;2022-08-04T08:23:53;9.95;;;4.20;;
55491;SDS011;41354;52.990;6.878;2022-08-04T08:26:19;7.63;;;3.97;;
55491;SDS011;41354;52.990;6.878;2022-08-04T08:28:45;11.00;;;2.78;;
55491;SDS011;41354;52.990;6.878;2022-08-04T08:31:11;6.32;;;2.13;;
55491;SDS011;41354;52.990;6.878;2022-08-04T08:33:37;6.40;;;2.05;;
55491;SDS011;41354;52.990;6.878;2022-08-04T08:36:06;5.82;;;2.55;;
55491;SDS011;41354;52.990;6.878;2022-08-04T08:38:45;4.57;;;2.13;;
55491;SDS011;41354;52.990;6.878;2022-08-04T08:44:04;7.38;;;1.08;;
55491;SDS011;41354;52.990;6.878;2022-08-04T08:49:51;7.85;;;1.58;;
55491;SDS011;41354;52.990;6.878;2022-08-04T08:55:25;5.68;;;1.67;;
55491;SDS011;41354;52.990;6.878;2022-08-04T08:58:08;4.95;;;1.73;;
55491;SDS011;41354;52.990;6.878;2022-08-04T09:09:30;6.50;;;2.85;;
55491;SDS011;41354;52.990;6.878;2022-08-04T09:15:21;9.07;;;4.10;;
55491;SDS011;41354;52.990;6.878;2022-08-04T09:18:12;4.20;;;1.35;;
55491;SDS011;41354;52.990;6.878;2022-08-04T09:20:47;6.82;;;1.65;;
55491;SDS011;41354;52.990;6.878;2022-08-04T09:23:47;3.28;;;1.10;;
55491;SDS011;41354;52.990;6.878;2022-08-04T09:26:38;6.43;;;1.55;;
55491;SDS011;41354;52.990;6.878;2022-08-04T09:31:43;4.07;;;1.10;;
55491;SDS011;41354;52.990;6.878;2022-08-04T09:37:01;3.95;;;1.02;;
55491;SDS011;41354;52.990;6.878;2022-08-04T09:40:04;7.75;;;1.73;;
55491;SDS011;41354;52.990;6.878;2022-08-04T09:45:32;3.15;;;0.88;;
55491;SDS011;41354;52.990;6.878;2022-08-04T09:48:13;4.57;;;1.10;;
55491;SDS011;41354;52.990;6.878;2022-08-04T09:50:45;4.00;;;1.40;;
55491;SDS011;41354;52.990;6.878;2022-08-04T09:56:31;8.98;;;1.45;;
55491;SDS011;41354;52.990;6.878;2022-08-04T09:59:08;5.00;;;1.35;;
55491;SDS011;41354;52.990;6.878;2022-08-04T10:01:41;5.05;;;1.50;;
55491;SDS011;41354;52.990;6.878;2022-08-04T10:04:08;4.28;;;0.90;;
55491;SDS011;41354;52.990;6.878;2022-08-04T10:18:07;3.55;;;0.85;;
55491;SDS011;41354;52.990;6.878;2022-08-04T10:28:24;2.72;;;0.90;;
55491;SDS011;41354;52.990;6.878;2022-08-04T10:30:56;5.82;;;1.55;;
55491;SDS011;41354;52.990;6.878;2022-08-04T10:33:41;4.40;;;1.15;;
55491;SDS011;41354;52.990;6.878;2022-08-04T10:36:18;6.65;;;1.40;;
55491;SDS011;41354;52.990;6.878;2022-08-04T10:39:02;8.75;;;4.28;;
55491;SDS011;41354;52.990;6.878;2022-08-04T10:47:00;8.15;;;1.98;;
55491;SDS011;41354;52.990;6.878;2022-08-04T10:52:04;8.67;;;2.17;;
55491;SDS011;41354;52.990;6.878;2022-08-04T11:07:47;5.13;;;1.95;;
55491;SDS011;41354;52.990;6.878;2022-08-04T11:10:15;8.25;;;2.03;;
55491;SDS011;41354;52.990;6.878;2022-08-04T11:12:46;2.88;;;1.63;;
55491;SDS011;41354;52.990;6.878;2022-08-04T11:15:20;8.05;;;2.45;;
55491;SDS011;41354;52.990;6.878;2022-08-04T11:17:52;4.72;;;1.60;;
55491;SDS011;41354;52.990;6.878;2022-08-04T11:25:34;2.75;;;1.33;;
55491;SDS011;41354;52.990;6.878;2022-08-04T11:31:19;1.98;;;0.85;;
55491;SDS011;41354;52.990;6.878;2022-08-04T11:33:51;2.17;;;1.00;;
55491;SDS011;41354;52.990;6.878;2022-08-04T11:36:48;3.70;;;1.13;;
55491;SDS011;41354;52.990;6.878;2022-08-04T11:39:26;3.13;;;1.88;;
55491;SDS011;41354;52.990;6.878;2022-08-04T11:42:14;4.05;;;1.05;;
55491;SDS011;41354;52.990;6.878;2022-08-04T11:47:29;6.13;;;0.97;;
55491;SDS011;41354;52.990;6.878;2022-08-04T11:50:21;4.68;;;1.10;;
55491;SDS011;41354;52.990;6.878;2022-08-04T11:53:05;2.58;;;0.77;;
55491;SDS011;41354;52.990;6.878;2022-08-04T11:55:32;3.70;;;1.20;;
55491;SDS011;41354;52.990;6.878;2022-08-04T11:58:00;6.65;;;1.52;;
55491;SDS011;41354;52.990;6.878;2022-08-04T12:00:27;5.13;;;1.27;;
55491;SDS011;41354;52.990;6.878;2022-08-04T12:05:45;9.07;;;3.00;;
55491;SDS011;41354;52.990;6.878;2022-08-04T12:13:33;3.80;;;0.93;;
55491;SDS011;41354;52.990;6.878;2022-08-04T12:21:10;5.20;;;1.02;;
55491;SDS011;41354;52.990;6.878;2022-08-04T12:23:42;3.70;;;1.25;;
55491;SDS011;41354;52.990;6.878;2022-08-04T12:26:13;4.68;;;0.73;;
55491;SDS011;41354;52.990;6.878;2022-08-04T12:28:46;2.17;;;0.52;;
55491;SDS011;41354;52.990;6.878;2022-08-04T12:31:19;3.88;;;0.82;;
55491;SDS011;41354;52.990;6.878;2022-08-04T12:34:08;3.55;;;0.80;;
55491;SDS011;41354;52.990;6.878;2022-08-04T12:36:51;4.25;;;0.85;;
55491;SDS011;41354;52.990;6.878;2022-08-04T12:39:24;1.83;;;0.60;;
55491;SDS011;41354;52.990;6.878;2022-08-04T12:41:56;3.40;;;1.17;;
55491;SDS011;41354;52.990;6.878;2022-08-04T12:44:22;4.15;;;0.70;;
55491;SDS011;41354;52.990;6.878;2022-08-04T12:46:55;3.15;;;0.55;;
55491;SDS011;41354;52.990;6.878;2022-08-04T12:49:23;2.63;;;0.77;;
55491;SDS011;41354;52.990;6.878;2022-08-04T12:51:50;3.58;;;0.60;;
55491;SDS011;41354;52.990;6.878;2022-08-04T12:54:21;3.05;;;0.60;;
55491;SDS011;41354;52.990;6.878;2022-08-04T12:56:49;4.15;;;0.70;;
55491;SDS011;41354;52.990;6.878;2022-08-04T12:59:15;1.77;;;0.40;;
55491;SDS011;41354;52.990;6.878;2022-08-04T13:01:46;4.10;;;0.50;;
55491;SDS011;41354;52.990;6.878;2022-08-04T13:04:14;3.72;;;0.50;;
55491;SDS011;41354;52.990;6.878;2022-08-04T13:06:41;2.50;;;0.60;;
55491;SDS011;41354;52.990;6.878;2022-08-04T13:09:14;2.55;;;0.60;;
55491;SDS011;41354;52.990;6.878;2022-08-04T13:11:42;4.35;;;0.93;;
55491;SDS011;41354;52.990;6.878;2022-08-04T13:14:14;2.30;;;0.65;;
55491;SDS011;41354;52.990;6.878;2022-08-04T13:16:41;3.40;;;1.25;;
55491;SDS011;41354;52.990;6.878;2022-08-04T13:19:07;1.40;;;0.35;;
55491;SDS011;41354;52.990;6.878;2022-08-04T13:21:34;3.83;;;0.73;;
55491;SDS011;41354;52.990;6.878;2022-08-04T13:24:07;1.70;;;0.40;;
55491;SDS011;41354;52.990;6.878;2022-08-04T13:26:38;1.15;;;0.30;;
55491;SDS011;41354;52.990;6.878;2022-08-04T13:29:13;3.65;;;0.40;;
55491;SDS011;41354;52.990;6.878;2022-08-04T13:31:42;1.00;;;0.30;;
55491;SDS011;41354;52.990;6.878;2022-08-04T13:34:09;2.35;;;0.40;;
55491;SDS011;41354;52.990;6.878;2022-08-04T13:36:35;0.93;;;0.20;;
55491;SDS011;41354;52.990;6.878;2022-08-04T13:39:05;2.67;;;0.77;;
55491;SDS011;41354;52.990;6.878;2022-08-04T13:41:33;2.47;;;0.30;;
55491;SDS011;41354;52.990;6.878;2022-08-04T13:44:03;1.40;;;0.40;;
55491;SDS011;41354;52.990;6.878;2022-08-04T13:46:36;1.58;;;0.40;;
55491;SDS011;41354;52.990;6.878;2022-08-04T13:49:06;0.98;;;0.38;;
55491;SDS011;41354;52.990;6.878;2022-08-04T13:51:34;3.90;;;0.52;;
55491;SDS011;41354;52.990;6.878;2022-08-04T13:54:03;1.48;;;0.30;;
55491;SDS011;41354;52.990;6.878;2022-08-04T13:56:32;1.08;;;0.30;;
55491;SDS011;41354;52.990;6.878;2022-08-04T14:01:32;7.03;;;0.52;;
55491;SDS011;41354;52.990;6.878;2022-08-04T14:09:31;3.03;;;0.28;;
55491;SDS011;41354;52.990;6.878;2022-08-04T14:12:04;3.65;;;0.50;;
55491;SDS011;41354;52.990;6.878;2022-08-04T14:14:35;1.17;;;0.40;;
55491;SDS011;41354;52.990;6.878;2022-08-04T14:17:09;1.35;;;0.30;;
55491;SDS011;41354;52.990;6.878;2022-08-04T14:22:26;1.42;;;0.40;;
55491;SDS011;41354;52.990;6.878;2022-08-04T14:30:23;3.63;;;0.40;;
55491;SDS011;41354;52.990;6.878;2022-08-04T14:33:04;3.00;;;0.40;;
55491;SDS011;41354;52.990;6.878;2022-08-04T14:38:02;2.25;;;0.50;;
55491;SDS011;41354;52.990;6.878;2022-08-04T14:40:37;1.35;;;0.28;;
55491;SDS011;41354;52.990;6.878;2022-08-04T14:43:04;1.15;;;0.30;;
55491;SDS011;41354;52.990;6.878;2022-08-04T14:45:32;1.27;;;0.30;;
55491;SDS011;41354;52.990;6.878;2022-08-04T14:48:09;2.33;;;0.40;;
55491;SDS011;41354;52.990;6.878;2022-08-04T14:50:40;3.47;;;0.25;;
55491;SDS011;41354;52.990;6.878;2022-08-04T14:53:12;1.75;;;0.45;;
55491;SDS011;41354;52.990;6.878;2022-08-04T14:55:38;1.42;;;0.30;;
55491;SDS011;41354;52.990;6.878;2022-08-04T14:58:16;3.92;;;0.30;;
55491;SDS011;41354;52.990;6.878;2022-08-04T15:00:43;1.55;;;0.35;;
55491;SDS011;41354;52.990;6.878;2022-08-04T15:03:09;3.50;;;0.40;;
55491;SDS011;41354;52.990;6.878;2022-08-04T15:05:38;1.67;;;0.30;;
55491;SDS011;41354;52.990;6.878;2022-08-04T15:08:05;1.13;;;0.40;;
55491;SDS011;41354;52.990;6.878;2022-08-04T15:10:31;0.65;;;0.20;;
55491;SDS011;41354;52.990;6.878;2022-08-04T15:12:57;1.33;;;0.35;;
55491;SDS011;41354;52.990;6.878;2022-08-04T15:15:22;0.70;;;0.35;;
55491;SDS011;41354;52.990;6.878;2022-08-04T15:17:50;0.65;;;0.20;;
55491;SDS011;41354;52.990;6.878;2022-08-04T15:20:16;1.85;;;0.30;;
55491;SDS011;41354;52.990;6.878;2022-08-04T15:22:42;1.75;;;0.30;;
55491;SDS011;41354;52.990;6.878;2022-08-04T15:25:08;0.82;;;0.20;;
55491;SDS011;41354;52.990;6.878;2022-08-04T15:27:35;2.58;;;0.75;;
55491;SDS011;41354;52.990;6.878;2022-08-04T15:30:07;1.05;;;0.20;;
55491;SDS011;41354;52.990;6.878;2022-08-04T15:35:11;1.95;;;0.22;;
55491;SDS011;41354;52.990;6.878;2022-08-04T15:37:45;0.88;;;0.30;;
55491;SDS011;41354;52.990;6.878;2022-08-04T15:45:48;5.28;;;0.45;;
55491;SDS011;41354;52.990;6.878;2022-08-04T15:53:32;7.03;;;1.08;;
55491;SDS011;41354;52.990;6.878;2022-08-04T15:58:51;3.20;;;0.63;;
55491;SDS011;41354;52.990;6.878;2022-08-04T16:01:19;4.70;;;1.23;;
55491;SDS011;41354;52.990;6.878;2022-08-04T16:03:46;5.80;;;0.68;;
55491;SDS011;41354;52.990;6.878;2022-08-04T16:16:26;3.08;;;0.70;;
55491;SDS011;41354;52.990;6.878;2022-08-04T16:18:52;1.40;;;0.40;;
55491;SDS011;41354;52.990;6.878;2022-08-04T16:21:24;2.72;;;0.40;;
55491;SDS011;41354;52.990;6.878;2022-08-04T16:37:02;3.40;;;0.50;;
55491;SDS011;41354;52.990;6.878;2022-08-04T16:39:29;1.15;;;0.35;;
55491;SDS011;41354;52.990;6.878;2022-08-04T16:41:55;3.80;;;0.63;;
55491;SDS011;41354;52.990;6.878;2022-08-04T16:44:34;1.70;;;0.40;;
55491;SDS011;41354;52.990;6.878;2022-08-04T16:47:03;1.75;;;0.55;;
55491;SDS011;41354;52.990;6.878;2022-08-04T16:49:30;3.17;;;0.52;;
55491;SDS011;41354;52.990;6.878;2022-08-04T16:52:00;2.92;;;1.45;;
55491;SDS011;41354;52.990;6.878;2022-08-04T16:54:30;3.22;;;0.60;;
55491;SDS011;41354;52.990;6.878;2022-08-04T16:56:57;4.03;;;0.98;;
55491;SDS011;41354;52.990;6.878;2022-08-04T16:59:23;1.70;;;0.45;;
55491;SDS011;41354;52.990;6.878;2022-08-04T17:01:50;7.57;;;0.63;;
55491;SDS011;41354;52.990;6.878;2022-08-04T17:04:20;2.25;;;0.35;;
55491;SDS011;41354;52.990;6.878;2022-08-04T17:06:57;2.35;;;0.75;;
55491;SDS011;41354;52.990;6.878;2022-08-04T17:09:24;2.30;;;0.52;;
55491;SDS011;41354;52.990;6.878;2022-08-04T17:11:50;2.80;;;0.60;;
55491;SDS011;41354;52.990;6.878;2022-08-04T17:14:21;1.75;;;0.40;;
55491;SDS011;41354;52.990;6.878;2022-08-04T17:16:47;2.15;;;0.47;;
55491;SDS011;41354;52.990;6.878;2022-08-04T17:19:13;2.30;;;0.98;;
55491;SDS011;41354;52.990;6.878;2022-08-04T17:21:39;2.38;;;0.45;;
55491;SDS011;41354;52.990;6.878;2022-08-04T17:24:04;1.85;;;0.40;;
55491;SDS011;41354;52.990;6.878;2022-08-04T17:26:32;2.38;;;0.52;;
55491;SDS011;41354;52.990;6.878;2022-08-04T17:28:58;1.80;;;0.50;;
55491;SDS011;41354;52.990;6.878;2022-08-04T17:31:26;2.70;;;0.50;;
55491;SDS011;41354;52.990;6.878;2022-08-04T17:33:53;3.67;;;0.30;;
55491;SDS011;41354;52.990;6.878;2022-08-04T17:36:22;2.13;;;0.90;;
55491;SDS011;41354;52.990;6.878;2022-08-04T17:38:50;3.40;;;0.70;;
55491;SDS011;41354;52.990;6.878;2022-08-04T17:41:21;2.88;;;0.90;;
55491;SDS011;41354;52.990;6.878;2022-08-04T17:43:55;1.83;;;0.50;;
55491;SDS011;41354;52.990;6.878;2022-08-04T17:49:08;1.45;;;0.35;;
55491;SDS011;41354;52.990;6.878;2022-08-04T17:51:50;1.98;;;0.60;;
55491;SDS011;41354;52.990;6.878;2022-08-04T17:56:51;3.78;;;0.57;;
55491;SDS011;41354;52.990;6.878;2022-08-04T17:59:20;3.92;;;0.75;;
55491;SDS011;41354;52.990;6.878;2022-08-04T18:04:29;1.30;;;0.70;;
55491;SDS011;41354;52.990;6.878;2022-08-04T18:12:20;3.05;;;0.90;;
55491;SDS011;41354;52.990;6.878;2022-08-04T18:14:57;3.90;;;0.98;;
55491;SDS011;41354;52.990;6.878;2022-08-04T18:17:31;2.90;;;0.98;;
55491;SDS011;41354;52.990;6.878;2022-08-04T18:20:12;3.15;;;0.50;;
55491;SDS011;41354;52.990;6.878;2022-08-04T18:22:40;2.60;;;0.77;;
55491;SDS011;41354;52.990;6.878;2022-08-04T18:25:10;1.98;;;0.85;;
55491;SDS011;41354;52.990;6.878;2022-08-04T18:27:50;1.13;;;0.47;;
55491;SDS011;41354;52.990;6.878;2022-08-04T18:30:23;1.55;;;0.38;;
55491;SDS011;41354;52.990;6.878;2022-08-04T18:32:50;2.22;;;0.60;;
55491;SDS011;41354;52.990;6.878;2022-08-04T18:35:18;2.63;;;0.82;;
55491;SDS011;41354;52.990;6.878;2022-08-04T18:37:44;3.38;;;0.88;;
55491;SDS011;41354;52.990;6.878;2022-08-04T18:40:10;2.53;;;0.65;;
55491;SDS011;41354;52.990;6.878;2022-08-04T18:42:37;2.33;;;0.68;;
55491;SDS011;41354;52.990;6.878;2022-08-04T18:45:03;2.70;;;1.23;;
55491;SDS011;41354;52.990;6.878;2022-08-04T18:47:29;2.25;;;1.10;;
55491;SDS011;41354;52.990;6.878;2022-08-04T18:49:55;4.07;;;0.80;;
55491;SDS011;41354;52.990;6.878;2022-08-04T18:52:22;5.13;;;0.73;;
55491;SDS011;41354;52.990;6.878;2022-08-04T18:54:48;4.10;;;0.80;;
55491;SDS011;41354;52.990;6.878;2022-08-04T18:57:17;11.27;;;1.65;;
55491;SDS011;41354;52.990;6.878;2022-08-04T18:59:46;5.60;;;0.90;;
55491;SDS011;41354;52.990;6.878;2022-08-04T19:02:12;1.45;;;0.60;;
55491;SDS011;41354;52.990;6.878;2022-08-04T19:04:38;5.10;;;0.60;;
55491;SDS011;41354;52.990;6.878;2022-08-04T19:07:04;2.30;;;0.85;;
55491;SDS011;41354;52.990;6.878;2022-08-04T19:09:30;4.68;;;1.00;;
55491;SDS011;41354;52.990;6.878;2022-08-04T19:11:56;1.55;;;1.23;;
55491;SDS011;41354;52.990;6.878;2022-08-04T19:14:22;3.53;;;0.85;;
55491;SDS011;41354;52.990;6.878;2022-08-04T19:16:48;2.67;;;0.73;;
55491;SDS011;41354;52.990;6.878;2022-08-04T19:19:14;3.92;;;0.57;;
55491;SDS011;41354;52.990;6.878;2022-08-04T19:21:41;2.10;;;0.60;;
55491;SDS011;41354;52.990;6.878;2022-08-04T19:24:07;5.10;;;1.20;;
55491;SDS011;41354;52.990;6.878;2022-08-04T19:26:34;7.32;;;1.05;;
55491;SDS011;41354;52.990;6.878;2022-08-04T19:29:00;1.58;;;0.73;;
55491;SDS011;41354;52.990;6.878;2022-08-04T19:31:26;3.90;;;0.80;;
55491;SDS011;41354;52.990;6.878;2022-08-04T19:33:51;8.20;;;2.80;;
55491;SDS011;41354;52.990;6.878;2022-08-04T19:36:17;15.57;;;10.32;;
55491;SDS011;41354;52.990;6.878;2022-08-04T19:41:23;3.78;;;1.83;;
55491;SDS011;41354;52.990;6.878;2022-08-04T19:43:48;5.13;;;2.28;;
55491;SDS011;41354;52.990;6.878;2022-08-04T19:46:14;63.97;;;47.97;;
55491;SDS011;41354;52.990;6.878;2022-08-04T19:48:40;14.50;;;8.73;;
55491;SDS011;41354;52.990;6.878;2022-08-04T19:51:08;5.30;;;3.33;;
55491;SDS011;41354;52.990;6.878;2022-08-04T19:53:34;6.60;;;2.13;;
55491;SDS011;41354;52.990;6.878;2022-08-04T19:56:02;2.88;;;0.70;;
55491;SDS011;41354;52.990;6.878;2022-08-04T19:58:28;6.55;;;1.10;;
55491;SDS011;41354;52.990;6.878;2022-08-04T20:00:53;2.70;;;0.70;;
55491;SDS011;41354;52.990;6.878;2022-08-04T20:03:19;5.35;;;1.05;;
55491;SDS011;41354;52.990;6.878;2022-08-04T20:05:48;2.83;;;0.82;;
55491;SDS011;41354;52.990;6.878;2022-08-04T20:08:14;3.45;;;1.10;;